createdAt,value
2023-03-15T00:00:22.630Z,371
2023-03-15T00:01:21.653Z,378
2023-03-15T00:02:21.748Z,373
2023-03-15T00:03:21.516Z,369
2023-03-15T00:04:21.652Z,363
2023-03-15T00:05:22.012Z,371
2023-03-15T00:07:21.715Z,373
2023-03-15T00:08:21.286Z,374
2023-03-15T00:09:21.914Z,367
2023-03-15T00:10:21.583Z,361
2023-03-15T00:11:21.907Z,366
2023-03-15T00:12:21.674Z,374
2023-03-15T00:13:21.308Z,372
2023-03-15T00:14:21.455Z,370
2023-03-15T00:15:21.982Z,368
2023-03-15T00:16:22.195Z,361
2023-03-15T00:17:21.829Z,353
2023-03-15T00:18:21.485Z,364
2023-03-15T00:19:21.446Z,374
2023-03-15T00:20:22.149Z,369
2023-03-15T00:21:22.210Z,373
2023-03-15T00:22:21.864Z,359
2023-03-15T00:23:21.541Z,367
2023-03-15T00:24:24.965Z,368
2023-03-15T00:25:21.596Z,361
2023-03-15T00:26:21.093Z,360
2023-03-15T00:27:21.369Z,356
2023-03-15T00:28:21.749Z,361
2023-03-15T00:29:21.837Z,362
2023-03-15T00:30:21.977Z,366
2023-03-15T00:31:21.717Z,363
2023-03-15T00:32:21.397Z,371
2023-03-15T00:33:21.622Z,377
2023-03-15T00:34:21.711Z,370
2023-03-15T00:35:21.448Z,357
2023-03-15T00:36:21.883Z,363
2023-03-15T00:37:21.279Z,358
2023-03-15T00:38:21.638Z,367
2023-03-15T00:39:21.666Z,368
2023-03-15T00:40:22.106Z,365
2023-03-15T00:41:21.482Z,364
2023-03-15T00:42:21.796Z,372
2023-03-15T00:43:21.193Z,361
2023-03-15T00:44:21.524Z,364
2023-03-15T00:45:22.470Z,367
2023-03-15T00:46:21.630Z,360
2023-03-15T00:47:21.695Z,362
2023-03-15T00:48:21.328Z,369
2023-03-15T00:49:21.693Z,365
2023-03-15T00:50:21.978Z,361
2023-03-15T00:51:21.624Z,368
2023-03-15T00:52:22.007Z,363
2023-03-15T00:53:21.355Z,366
2023-03-15T00:54:21.760Z,361
2023-03-15T00:55:21.161Z,360
2023-03-15T00:57:21.056Z,354
2023-03-15T00:58:23.486Z,364
2023-03-15T00:59:21.568Z,360
2023-03-15T01:01:25.245Z,366
2023-03-15T01:03:21.465Z,357
2023-03-15T01:04:21.478Z,358
2023-03-15T01:05:22.436Z,360
2023-03-15T01:06:21.985Z,358
2023-03-15T01:07:21.271Z,369
2023-03-15T01:08:21.530Z,362
2023-03-15T01:09:21.899Z,364
2023-03-15T01:10:21.945Z,371
2023-03-15T01:11:21.188Z,369
2023-03-15T01:12:21.726Z,365
2023-03-15T01:13:21.832Z,363
2023-03-15T01:14:21.364Z,361
2023-03-15T01:15:22.009Z,365
2023-03-15T01:16:21.357Z,377
2023-03-15T01:17:22.067Z,372
2023-03-15T01:18:21.862Z,367
2023-03-15T01:19:21.554Z,369
2023-03-15T01:20:21.749Z,368
2023-03-15T01:21:21.504Z,364
2023-03-15T01:22:21.761Z,367
2023-03-15T01:23:21.214Z,361
2023-03-15T01:24:21.353Z,373
2023-03-15T01:25:22.015Z,370
2023-03-15T01:26:21.357Z,361
2023-03-15T01:27:21.564Z,366
2023-03-15T01:28:20.988Z,360
2023-03-15T01:29:21.380Z,358
2023-03-15T01:30:22.386Z,355
2023-03-15T01:31:21.708Z,360
2023-03-15T01:32:21.689Z,362
2023-03-15T01:33:21.127Z,368
2023-03-15T01:34:21.589Z,365
2023-03-15T01:35:22.421Z,359
2023-03-15T01:36:21.972Z,362
2023-03-15T01:37:21.638Z,370
2023-03-15T01:38:21.402Z,373
2023-03-15T01:39:21.741Z,371
2023-03-15T01:40:21.605Z,374
2023-03-15T01:41:21.507Z,370
2023-03-15T01:42:21.624Z,368
2023-03-15T01:43:21.834Z,375
2023-03-15T01:44:21.354Z,369
2023-03-15T01:45:21.861Z,361
2023-03-15T01:46:21.799Z,368
2023-03-15T01:47:21.320Z,363
2023-03-15T01:49:21.420Z,368
2023-03-15T01:50:21.690Z,369
2023-03-15T01:51:22.060Z,378
2023-03-15T01:52:21.238Z,375
2023-03-15T01:53:21.259Z,381
2023-03-15T01:54:21.536Z,380
2023-03-15T01:55:21.850Z,377
2023-03-15T01:56:21.861Z,366
2023-03-15T01:57:21.528Z,350
2023-03-15T01:58:21.384Z,359
2023-03-15T01:59:21.912Z,367
2023-03-15T02:00:22.267Z,369
2023-03-15T02:01:21.439Z,360
2023-03-15T02:02:21.183Z,358
2023-03-15T02:03:21.554Z,360
2023-03-15T02:04:22.317Z,359
2023-03-15T02:05:22.240Z,362
2023-03-15T02:06:21.240Z,364
2023-03-15T02:07:21.544Z,372
2023-03-15T02:08:21.987Z,357
2023-03-15T02:09:21.734Z,359
2023-03-15T02:10:22.196Z,364
2023-03-15T02:11:21.400Z,361
2023-03-15T02:12:21.865Z,356
2023-03-15T02:13:21.652Z,360
2023-03-15T02:14:21.264Z,364
2023-03-15T02:15:21.956Z,357
2023-03-15T02:16:21.430Z,354
2023-03-15T02:17:21.519Z,361
2023-03-15T02:18:21.370Z,365
2023-03-15T02:19:20.958Z,361
2023-03-15T02:21:21.773Z,368
2023-03-15T02:22:21.669Z,371
2023-03-15T02:24:21.666Z,357
2023-03-15T02:25:21.450Z,363
2023-03-15T02:26:21.642Z,360
2023-03-15T02:27:21.649Z,359
2023-03-15T02:28:35.452Z,350
2023-03-15T02:29:21.845Z,358
2023-03-15T02:30:21.491Z,370
2023-03-15T02:31:21.090Z,369
2023-03-15T02:32:21.685Z,356
2023-03-15T02:33:21.111Z,367
2023-03-15T02:34:21.564Z,354
2023-03-15T02:35:21.787Z,366
2023-03-15T02:36:21.324Z,372
2023-03-15T02:37:21.449Z,370
2023-03-15T02:38:21.812Z,357
2023-03-15T02:39:20.936Z,359
2023-03-15T02:40:21.439Z,366
2023-03-15T02:41:21.631Z,365
2023-03-15T02:42:21.740Z,364
2023-03-15T02:43:21.616Z,366
2023-03-15T02:44:21.511Z,365
2023-03-15T02:45:22.361Z,359
2023-03-15T02:46:21.634Z,353
2023-03-15T02:47:21.881Z,365
2023-03-15T02:48:21.271Z,364
2023-03-15T02:49:21.484Z,361
2023-03-15T02:50:21.943Z,365
2023-03-15T02:51:21.056Z,368
2023-03-15T02:52:21.453Z,363
2023-03-15T02:53:21.527Z,356
2023-03-15T02:54:21.571Z,357
2023-03-15T02:55:21.634Z,361
2023-03-15T02:56:21.305Z,366
2023-03-15T02:57:21.020Z,364
2023-03-15T02:58:21.274Z,352
2023-03-15T02:59:20.817Z,356
2023-03-15T03:00:22.618Z,359
2023-03-15T03:01:21.427Z,358
2023-03-15T03:02:21.674Z,362
2023-03-15T03:04:21.430Z,360
2023-03-15T03:05:21.853Z,361
2023-03-15T03:06:21.480Z,375
2023-03-15T03:07:21.114Z,366
2023-03-15T03:08:21.431Z,372
2023-03-15T03:09:21.207Z,370
2023-03-15T03:10:21.245Z,368
2023-03-15T03:11:21.427Z,362
2023-03-15T03:12:21.283Z,351
2023-03-15T03:13:21.240Z,358
2023-03-15T03:14:21.290Z,360
2023-03-15T03:15:22.121Z,362
2023-03-15T03:18:21.514Z,354
2023-03-15T03:19:21.176Z,357
2023-03-15T03:20:21.134Z,361
2023-03-15T03:21:21.295Z,356
2023-03-15T03:22:21.221Z,354
2023-03-15T03:23:20.927Z,353
2023-03-15T03:25:21.728Z,359
2023-03-15T03:26:21.407Z,367
2023-03-15T03:27:20.977Z,368
2023-03-15T03:28:21.208Z,367
2023-03-15T03:29:21.166Z,365
2023-03-15T03:30:22.003Z,366
2023-03-15T03:31:21.777Z,357
2023-03-15T03:32:21.145Z,354
2023-03-15T03:34:21.124Z,358
2023-03-15T03:35:21.258Z,364
2023-03-15T03:37:21.615Z,357
2023-03-15T03:38:21.410Z,362
2023-03-15T03:39:21.687Z,361
2023-03-15T03:40:21.638Z,358
2023-03-15T03:41:20.866Z,346
2023-03-15T03:42:21.637Z,352
2023-03-15T03:43:21.466Z,361
2023-03-15T03:44:21.294Z,354
2023-03-15T03:45:21.451Z,365
2023-03-15T03:47:20.845Z,364
2023-03-15T03:48:21.716Z,363
2023-03-15T03:49:21.072Z,362
2023-03-15T03:50:21.366Z,367
2023-03-15T03:51:21.665Z,361
2023-03-15T03:52:21.685Z,357
2023-03-15T03:53:21.301Z,358
2023-03-15T03:54:21.314Z,364
2023-03-15T03:55:21.302Z,362
2023-03-15T03:56:21.233Z,359
2023-03-15T03:57:21.336Z,358
2023-03-15T03:58:21.591Z,367
2023-03-15T03:59:21.251Z,366
2023-03-15T04:00:22.345Z,358
2023-03-15T04:01:22.067Z,356
2023-03-15T04:02:21.642Z,366
2023-03-15T04:04:21.154Z,357
2023-03-15T04:05:21.829Z,361
2023-03-15T04:06:21.471Z,377
2023-03-15T04:07:21.260Z,363
2023-03-15T04:08:21.738Z,360
2023-03-15T04:09:21.835Z,364
2023-03-15T04:10:21.645Z,370
2023-03-15T04:11:21.561Z,373
2023-03-15T04:12:21.681Z,381
2023-03-15T04:13:21.229Z,371
2023-03-15T04:14:21.459Z,365
2023-03-15T04:15:21.663Z,367
2023-03-15T04:16:21.198Z,357
2023-03-15T04:17:21.476Z,353
2023-03-15T04:18:21.120Z,367
2023-03-15T04:20:21.884Z,365
2023-03-15T04:21:20.922Z,370
2023-03-15T04:22:21.728Z,367
2023-03-15T04:23:21.831Z,363
2023-03-15T04:24:21.692Z,365
2023-03-15T04:25:21.430Z,357
2023-03-15T04:26:21.726Z,359
2023-03-15T04:27:20.992Z,358
2023-03-15T04:28:21.410Z,362
2023-03-15T04:29:21.818Z,354
2023-03-15T04:30:21.309Z,351
2023-03-15T04:31:21.150Z,353
2023-03-15T04:32:21.333Z,354
2023-03-15T04:33:21.092Z,362
2023-03-15T04:34:21.976Z,365
2023-03-15T04:35:27.045Z,373
2023-03-15T04:36:21.348Z,360
2023-03-15T04:37:21.593Z,359
2023-03-15T04:38:21.210Z,364
2023-03-15T04:39:21.157Z,373
2023-03-15T04:40:21.193Z,372
2023-03-15T04:41:21.199Z,369
2023-03-15T04:42:21.618Z,365
2023-03-15T04:43:21.604Z,361
2023-03-15T04:44:21.459Z,360
2023-03-15T04:46:22.962Z,373
2023-03-15T04:47:21.618Z,375
2023-03-15T04:48:21.234Z,369
2023-03-15T04:49:35.679Z,364
2023-03-15T04:50:21.985Z,368
2023-03-15T04:51:21.289Z,358
2023-03-15T04:52:21.328Z,357
2023-03-15T04:53:21.520Z,366
2023-03-15T04:54:21.317Z,358
2023-03-15T04:55:21.709Z,363
2023-03-15T04:56:21.316Z,364
2023-03-15T04:57:21.660Z,362
2023-03-15T04:58:21.807Z,366
2023-03-15T04:59:21.164Z,362
2023-03-15T05:00:22.747Z,357
2023-03-15T05:01:35.918Z,352
2023-03-15T05:02:21.875Z,359
2023-03-15T05:03:21.535Z,362
2023-03-15T05:04:21.499Z,359
2023-03-15T05:05:22.084Z,370
2023-03-15T05:06:21.240Z,358
2023-03-15T05:07:21.514Z,352
2023-03-15T05:08:21.734Z,358
2023-03-15T05:09:22.052Z,357
2023-03-15T05:10:21.617Z,363
2023-03-15T05:11:21.458Z,370
2023-03-15T05:12:21.827Z,364
2023-03-15T05:13:21.372Z,365
2023-03-15T05:14:21.890Z,357
2023-03-15T05:15:21.644Z,360
2023-03-15T05:16:21.930Z,368
2023-03-15T05:17:21.036Z,365
2023-03-15T05:19:21.465Z,370
2023-03-15T05:20:21.395Z,373
2023-03-15T05:21:21.208Z,372
2023-03-15T05:22:21.026Z,361
2023-03-15T05:23:21.426Z,365
2023-03-15T05:24:21.610Z,369
2023-03-15T05:25:22.030Z,372
2023-03-15T05:26:21.743Z,368
2023-03-15T05:27:21.928Z,365
2023-03-15T05:28:21.774Z,360
2023-03-15T05:29:22.219Z,368
2023-03-15T05:30:22.324Z,367
2023-03-15T05:31:22.154Z,370
2023-03-15T05:32:21.600Z,364
2023-03-15T05:34:21.164Z,370
2023-03-15T05:35:21.667Z,374
2023-03-15T05:36:21.923Z,367
2023-03-15T05:37:21.117Z,370
2023-03-15T05:38:21.606Z,371
2023-03-15T05:39:21.694Z,363
2023-03-15T05:40:21.051Z,367
2023-03-15T05:41:21.529Z,374
2023-03-15T05:42:21.415Z,366
2023-03-15T05:43:21.366Z,370
2023-03-15T05:44:21.556Z,377
2023-03-15T05:46:21.297Z,365
2023-03-15T05:47:21.662Z,366
2023-03-15T05:48:21.184Z,370
2023-03-15T05:49:21.329Z,376
2023-03-15T05:50:22.060Z,375
2023-03-15T05:51:21.227Z,370
2023-03-15T05:52:21.263Z,372
2023-03-15T05:53:21.701Z,362
2023-03-15T05:54:21.413Z,355
2023-03-15T05:55:22.038Z,354
2023-03-15T05:56:21.979Z,360
2023-03-15T05:57:22.048Z,355
2023-03-15T05:58:21.747Z,364
2023-03-15T05:59:22.163Z,363
2023-03-15T06:00:22.794Z,368
2023-03-15T06:01:22.116Z,366
2023-03-15T06:02:21.570Z,363
2023-03-15T06:03:21.562Z,358
2023-03-15T06:04:22.372Z,362
2023-03-15T06:05:21.366Z,356
2023-03-15T06:06:21.462Z,360
2023-03-15T06:07:21.937Z,369
2023-03-15T06:09:22.145Z,376
2023-03-15T06:10:22.145Z,369
2023-03-15T06:12:21.455Z,362
2023-03-15T06:13:21.769Z,363
2023-03-15T06:14:21.956Z,368
2023-03-15T06:15:21.382Z,379
2023-03-15T06:16:21.394Z,378
2023-03-15T06:17:21.267Z,366
2023-03-15T06:18:21.633Z,369
2023-03-15T06:20:22.087Z,372
2023-03-15T06:22:21.469Z,366
2023-03-15T06:23:21.269Z,371
2023-03-15T06:24:21.368Z,368
2023-03-15T06:25:22.020Z,369
2023-03-15T06:26:21.308Z,374
2023-03-15T06:27:21.820Z,373
2023-03-15T06:28:21.522Z,354
2023-03-15T06:29:21.389Z,366
2023-03-15T06:30:22.195Z,369
2023-03-15T06:31:21.469Z,370
2023-03-15T06:32:21.610Z,364
2023-03-15T06:33:21.190Z,368
2023-03-15T06:34:21.978Z,367
2023-03-15T06:35:21.991Z,368
2023-03-15T06:36:21.956Z,371
2023-03-15T06:37:34.118Z,375
2023-03-15T06:38:21.468Z,372
2023-03-15T06:40:22.450Z,369
2023-03-15T06:41:21.715Z,373
2023-03-15T06:42:21.869Z,369
2023-03-15T06:43:21.405Z,370
2023-03-15T06:45:21.862Z,367
2023-03-15T06:46:21.937Z,366
2023-03-15T06:47:21.396Z,364
2023-03-15T06:48:21.635Z,369
2023-03-15T06:49:21.512Z,372
2023-03-15T06:50:21.687Z,373
2023-03-15T06:51:21.557Z,371
2023-03-15T06:52:21.659Z,367
2023-03-15T06:53:21.948Z,361
2023-03-15T06:54:22.868Z,374
2023-03-15T06:55:23.349Z,369
2023-03-15T06:57:22.299Z,370
2023-03-15T06:58:26.419Z,367
2023-03-15T06:59:22.012Z,368
2023-03-15T07:01:21.883Z,378
2023-03-15T07:02:27.010Z,361
2023-03-15T07:03:22.152Z,367
2023-03-15T07:04:21.716Z,373
2023-03-15T07:05:21.741Z,377
2023-03-15T07:06:26.996Z,361
2023-03-15T07:08:22.116Z,371
2023-03-15T07:10:22.336Z,366
2023-03-15T07:11:22.177Z,359
2023-03-15T07:12:22.189Z,360
2023-03-15T07:13:22.120Z,363
2023-03-15T07:14:22.509Z,369
2023-03-15T07:15:22.319Z,375
2023-03-15T07:16:21.804Z,371
2023-03-15T07:17:22.301Z,380
2023-03-15T07:18:22.496Z,381
2023-03-15T07:19:22.423Z,368
2023-03-15T07:20:37.888Z,364
2023-03-15T07:21:22.469Z,368
2023-03-15T07:22:22.310Z,365
2023-03-15T07:24:22.335Z,366
2023-03-15T07:25:22.898Z,360
2023-03-15T07:26:22.267Z,363
2023-03-15T07:27:22.869Z,365
2023-03-15T07:28:36.679Z,364
2023-03-15T07:29:21.942Z,366
2023-03-15T07:30:23.609Z,357
2023-03-15T07:31:22.184Z,359
2023-03-15T07:32:22.563Z,363
2023-03-15T07:33:22.689Z,365
2023-03-15T07:34:22.424Z,361
2023-03-15T07:35:22.425Z,363
2023-03-15T07:36:22.049Z,360
2023-03-15T07:38:22.591Z,359
2023-03-15T07:39:22.137Z,369
2023-03-15T07:40:22.635Z,359
2023-03-15T07:41:21.864Z,366
2023-03-15T07:42:22.028Z,355
2023-03-15T07:43:22.000Z,358
2023-03-15T07:44:22.251Z,360
2023-03-15T07:45:22.745Z,363
2023-03-15T07:46:22.597Z,364
2023-03-15T07:47:22.265Z,366
2023-03-15T07:48:22.338Z,367
2023-03-15T07:49:21.557Z,366
2023-03-15T07:50:22.069Z,365
2023-03-15T07:51:22.742Z,360
2023-03-15T07:52:22.246Z,358
2023-03-15T07:53:21.836Z,366
2023-03-15T07:54:22.655Z,360
2023-03-15T07:55:22.150Z,358
2023-03-15T07:56:22.224Z,356
2023-03-15T07:57:22.619Z,362
2023-03-15T07:59:22.034Z,376
2023-03-15T08:00:24.293Z,373
2023-03-15T08:01:22.623Z,365
2023-03-15T08:02:22.903Z,359
2023-03-15T08:03:23.020Z,357
2023-03-15T08:04:22.316Z,348
2023-03-15T08:05:21.946Z,339
2023-03-15T08:06:22.310Z,360
2023-03-15T08:08:22.952Z,363
2023-03-15T08:09:22.939Z,368
2023-03-15T08:10:22.510Z,371
2023-03-15T08:11:22.347Z,375
2023-03-15T08:12:22.454Z,357
2023-03-15T08:13:21.842Z,347
2023-03-15T08:14:22.593Z,356
2023-03-15T08:15:23.328Z,358
2023-03-15T08:16:22.184Z,360
2023-03-15T08:17:22.423Z,358
2023-03-15T08:18:22.669Z,364
2023-03-15T08:19:22.269Z,361
2023-03-15T08:20:21.844Z,354
2023-03-15T08:21:22.997Z,363
2023-03-15T08:22:22.954Z,369
2023-03-15T08:23:22.454Z,363
2023-03-15T08:24:22.076Z,366
2023-03-15T08:25:22.891Z,360
2023-03-15T08:26:22.631Z,362
2023-03-15T08:27:22.177Z,360
2023-03-15T08:28:22.412Z,356
2023-03-15T08:29:22.648Z,365
2023-03-15T08:30:22.935Z,367
2023-03-15T08:31:22.627Z,361
2023-03-15T08:32:23.325Z,366
2023-03-15T08:33:22.439Z,372
2023-03-15T08:34:22.313Z,363
2023-03-15T08:35:22.532Z,356
2023-03-15T08:36:22.410Z,360
2023-03-15T08:37:22.427Z,363
2023-03-15T08:39:22.104Z,360
2023-03-15T08:40:22.828Z,361
2023-03-15T08:41:22.243Z,355
2023-03-15T08:42:22.801Z,366
2023-03-15T08:43:22.373Z,357
2023-03-15T08:44:22.345Z,355
2023-03-15T08:45:22.843Z,362
2023-03-15T08:46:22.375Z,376
2023-03-15T08:47:22.488Z,370
2023-03-15T08:48:22.672Z,368
2023-03-15T08:49:22.670Z,370
2023-03-15T08:50:22.632Z,368
2023-03-15T08:51:22.076Z,366
2023-03-15T08:52:22.699Z,356
2023-03-15T08:53:22.504Z,349
2023-03-15T08:54:21.942Z,348
2023-03-15T08:55:22.810Z,358
2023-03-15T08:56:21.954Z,360
2023-03-15T08:57:22.062Z,355
2023-03-15T08:58:22.364Z,363
2023-03-15T09:00:23.650Z,361
2023-03-15T09:01:22.383Z,357
2023-03-15T09:02:22.563Z,362
2023-03-15T09:03:22.231Z,349
2023-03-15T09:04:22.240Z,351
2023-03-15T09:05:21.768Z,358
2023-03-15T09:06:22.412Z,359
2023-03-15T09:07:21.943Z,356
2023-03-15T09:08:21.917Z,363
2023-03-15T09:09:22.030Z,360
2023-03-15T09:10:22.647Z,356
2023-03-15T09:12:22.382Z,360
2023-03-15T09:14:22.935Z,358
2023-03-15T09:15:24.068Z,356
2023-03-15T09:16:21.970Z,360
2023-03-15T09:18:22.559Z,357
2023-03-15T09:19:21.946Z,363
2023-03-15T09:21:22.326Z,357
2023-03-15T09:22:34.733Z,365
2023-03-15T09:23:21.849Z,371
2023-03-15T09:24:21.767Z,372
2023-03-15T09:25:26.604Z,371
2023-03-15T09:26:22.131Z,367
2023-03-15T09:27:22.078Z,362
2023-03-15T09:28:22.507Z,365
2023-03-15T09:29:21.705Z,362
2023-03-15T09:30:22.461Z,365
2023-03-15T09:31:26.835Z,368
2023-03-15T09:32:22.412Z,360
2023-03-15T09:33:22.118Z,352
2023-03-15T09:34:23.533Z,350
2023-03-15T09:35:22.010Z,346
2023-03-15T09:36:21.905Z,349
2023-03-15T09:37:22.296Z,352
2023-03-15T09:38:21.552Z,356
2023-03-15T09:39:21.876Z,363
2023-03-15T09:40:22.380Z,365
2023-03-15T09:41:22.095Z,357
2023-03-15T09:42:22.285Z,368
2023-03-15T09:43:22.398Z,372
2023-03-15T09:44:21.763Z,362
2023-03-15T09:46:22.398Z,364
2023-03-15T09:47:21.855Z,360
2023-03-15T09:48:21.936Z,352
2023-03-15T09:49:36.591Z,359
2023-03-15T09:50:22.429Z,356
2023-03-15T09:51:22.212Z,347
2023-03-15T09:52:22.824Z,356
2023-03-15T09:53:21.782Z,368
2023-03-15T09:54:22.299Z,359
2023-03-15T09:55:22.305Z,354
2023-03-15T09:56:22.234Z,349
2023-03-15T09:57:22.439Z,352
2023-03-15T09:58:22.669Z,355
2023-03-15T09:59:23.449Z,357
2023-03-15T10:00:24.269Z,354
2023-03-15T10:01:22.646Z,351
2023-03-15T10:02:23.367Z,359
2023-03-15T10:03:22.614Z,362
2023-03-15T10:04:22.446Z,348
2023-03-15T10:05:22.951Z,356
2023-03-15T10:06:22.707Z,352
2023-03-15T10:07:22.154Z,355
2023-03-15T10:08:22.384Z,365
2023-03-15T10:09:22.104Z,364
2023-03-15T10:10:23.188Z,360
2023-03-15T10:11:22.213Z,356
2023-03-15T10:12:23.129Z,360
2023-03-15T10:13:22.119Z,366
2023-03-15T10:14:22.333Z,372
2023-03-15T10:15:24.104Z,378
2023-03-15T10:16:22.809Z,366
2023-03-15T10:17:22.738Z,365
2023-03-15T10:18:22.979Z,359
2023-03-15T10:19:22.789Z,344
2023-03-15T10:20:23.008Z,337
2023-03-15T10:21:22.397Z,353
2023-03-15T10:22:22.581Z,357
2023-03-15T10:24:23.723Z,361
2023-03-15T10:25:22.888Z,362
2023-03-15T10:26:22.910Z,351
2023-03-15T10:28:24.232Z,360
2023-03-15T10:29:22.603Z,365
2023-03-15T10:30:23.585Z,354
2023-03-15T10:31:32.884Z,357
2023-03-15T10:32:22.033Z,355
2023-03-15T10:33:22.622Z,342
2023-03-15T10:34:21.844Z,346
2023-03-15T10:35:22.390Z,358
2023-03-15T10:36:22.020Z,352
2023-03-15T10:37:22.268Z,345
2023-03-15T10:38:22.094Z,349
2023-03-15T10:39:22.178Z,364
2023-03-15T10:40:22.316Z,361
2023-03-15T10:41:28.745Z,365
2023-03-15T10:42:22.402Z,360
2023-03-15T10:43:22.202Z,363
2023-03-15T10:44:22.646Z,360
2023-03-15T10:45:22.399Z,356
2023-03-15T10:46:22.496Z,361
2023-03-15T10:47:24.379Z,366
2023-03-15T10:48:22.179Z,369
2023-03-15T10:49:22.723Z,380
2023-03-15T10:50:22.400Z,369
2023-03-15T10:51:22.244Z,357
2023-03-15T10:52:22.130Z,352
2023-03-15T10:53:22.805Z,359
2023-03-15T10:54:22.626Z,362
2023-03-15T10:55:22.181Z,371
2023-03-15T10:56:22.508Z,372
2023-03-15T10:57:22.617Z,368
2023-03-15T10:58:22.648Z,363
2023-03-15T10:59:21.958Z,358
2023-03-15T11:00:23.430Z,353
2023-03-15T11:01:23.163Z,357
2023-03-15T11:02:23.598Z,366
2023-03-15T11:03:22.996Z,362
2023-03-15T11:04:23.394Z,371
2023-03-15T11:06:23.263Z,373
2023-03-15T11:06:27.182Z,381
2023-03-15T11:07:22.213Z,354
2023-03-15T11:08:21.719Z,351
2023-03-15T11:09:22.051Z,354
2023-03-15T11:10:22.973Z,361
2023-03-15T11:11:21.746Z,357
2023-03-15T11:12:22.621Z,358
2023-03-15T11:13:22.504Z,357
2023-03-15T11:14:22.284Z,367
2023-03-15T11:15:22.513Z,362
2023-03-15T11:16:22.369Z,352
2023-03-15T11:17:21.660Z,348
2023-03-15T11:18:22.075Z,356
2023-03-15T11:19:22.141Z,352
2023-03-15T11:20:23.036Z,348
2023-03-15T11:21:22.522Z,359
2023-03-15T11:22:21.830Z,367
2023-03-15T11:23:22.040Z,365
2023-03-15T11:24:22.412Z,366
2023-03-15T11:25:23.969Z,362
2023-03-15T11:26:32.345Z,364
2023-03-15T11:28:21.798Z,366
2023-03-15T11:29:21.878Z,371
2023-03-15T11:30:22.359Z,365
2023-03-15T11:31:22.193Z,368
2023-03-15T11:32:22.257Z,373
2023-03-15T11:34:22.464Z,366
2023-03-15T11:35:22.261Z,367
2023-03-15T11:36:22.455Z,357
2023-03-15T11:37:22.376Z,359
2023-03-15T11:38:22.193Z,365
2023-03-15T11:39:22.193Z,363
2023-03-15T11:40:22.282Z,353
2023-03-15T11:41:22.110Z,354
2023-03-15T11:43:22.229Z,358
2023-03-15T11:44:22.327Z,356
2023-03-15T11:45:22.547Z,359
2023-03-15T11:46:26.765Z,356
2023-03-15T11:47:22.509Z,345
2023-03-15T11:48:22.440Z,351
2023-03-15T11:49:22.121Z,366
2023-03-15T11:50:22.387Z,357
2023-03-15T11:51:21.651Z,350
2023-03-15T11:52:27.071Z,353
2023-03-15T11:53:21.868Z,356
2023-03-15T11:54:22.053Z,360
2023-03-15T11:55:22.556Z,352
2023-03-15T11:56:26.945Z,344
2023-03-15T11:57:22.224Z,340
2023-03-15T11:58:21.991Z,345
2023-03-15T11:59:21.777Z,333
2023-03-15T12:00:28.509Z,337
2023-03-15T12:01:22.539Z,347
2023-03-15T12:02:22.623Z,349
2023-03-15T12:03:23.098Z,347
2023-03-15T12:04:22.155Z,353
2023-03-15T12:05:22.393Z,349
2023-03-15T12:06:22.543Z,355
2023-03-15T12:07:22.215Z,361
2023-03-15T12:08:36.044Z,360
2023-03-15T12:09:25.094Z,359
2023-03-15T12:10:22.450Z,356
2023-03-15T12:11:22.347Z,355
2023-03-15T12:12:22.248Z,367
2023-03-15T12:13:22.254Z,368
2023-03-15T12:15:23.490Z,364
2023-03-15T12:16:35.826Z,363
2023-03-15T12:17:22.258Z,357
2023-03-15T12:18:22.260Z,349
2023-03-15T12:19:22.393Z,368
2023-03-15T12:21:22.126Z,363
2023-03-15T12:22:41.272Z,361
2023-03-15T12:23:21.945Z,366
2023-03-15T12:24:22.455Z,357
2023-03-15T12:25:23.010Z,355
2023-03-15T12:26:41.737Z,358
2023-03-15T12:27:22.744Z,356
2023-03-15T12:28:22.317Z,350
2023-03-15T12:29:21.874Z,348
2023-03-15T12:30:42.394Z,358
2023-03-15T12:31:22.355Z,355
2023-03-15T12:32:22.160Z,367
2023-03-15T12:33:22.654Z,357
2023-03-15T12:34:22.262Z,358
2023-03-15T12:35:22.628Z,348
2023-03-15T12:36:22.539Z,351
2023-03-15T12:37:22.259Z,353
2023-03-15T12:38:22.701Z,352
2023-03-15T12:39:22.155Z,354
2023-03-15T12:40:22.240Z,357
2023-03-15T12:41:22.668Z,362
2023-03-15T12:42:22.020Z,354
2023-03-15T12:43:22.461Z,369
2023-03-15T12:44:21.651Z,352
2023-03-15T12:45:22.723Z,347
2023-03-15T12:46:22.090Z,359
2023-03-15T12:48:21.835Z,358
2023-03-15T12:49:22.192Z,360
2023-03-15T12:51:22.671Z,355
2023-03-15T12:52:22.095Z,360
2023-03-15T12:53:22.593Z,356
2023-03-15T12:54:22.731Z,354
2023-03-15T12:55:22.717Z,359
2023-03-15T12:56:22.179Z,357
2023-03-15T12:57:23.000Z,344
2023-03-15T12:58:22.259Z,346
2023-03-15T12:59:22.953Z,354
2023-03-15T13:00:23.425Z,357
2023-03-15T13:01:23.147Z,360
2023-03-15T13:02:29.528Z,361
2023-03-15T13:03:22.779Z,356
2023-03-15T13:04:22.989Z,362
2023-03-15T13:05:23.370Z,352
2023-03-15T13:06:23.006Z,355
2023-03-15T13:07:22.867Z,356
2023-03-15T13:08:22.614Z,355
2023-03-15T13:09:22.852Z,357
2023-03-15T13:10:22.578Z,355
2023-03-15T13:11:23.047Z,356
2023-03-15T13:12:22.745Z,354
2023-03-15T13:13:23.140Z,353
2023-03-15T13:14:22.665Z,354
2023-03-15T13:15:23.238Z,365
2023-03-15T13:16:22.551Z,360
2023-03-15T13:17:22.874Z,352
2023-03-15T13:19:22.993Z,359
2023-03-15T13:20:23.670Z,362
2023-03-15T13:21:22.422Z,373
2023-03-15T13:22:22.390Z,371
2023-03-15T13:23:23.636Z,358
2023-03-15T13:25:22.999Z,367
2023-03-15T13:26:22.705Z,371
2023-03-15T13:27:22.482Z,363
2023-03-15T13:28:21.960Z,359
2023-03-15T13:29:22.296Z,365
2023-03-15T13:30:23.166Z,382
2023-03-15T13:31:22.763Z,371
2023-03-15T13:35:23.121Z,365
2023-03-15T13:36:22.376Z,362
2023-03-15T13:37:22.512Z,361
2023-03-15T13:38:22.644Z,366
2023-03-15T13:39:22.142Z,369
2023-03-15T13:40:22.307Z,365
2023-03-15T13:41:22.428Z,366
2023-03-15T13:42:22.686Z,362
2023-03-15T13:43:23.016Z,365
2023-03-15T13:44:22.589Z,359
2023-03-15T13:45:22.596Z,356
2023-03-15T13:46:22.781Z,350
2023-03-15T13:47:22.967Z,354
2023-03-15T13:48:22.812Z,364
2023-03-15T13:49:22.516Z,361
2023-03-15T13:50:22.417Z,364
2023-03-15T13:51:22.985Z,353
2023-03-15T13:52:22.952Z,345
2023-03-15T13:54:22.840Z,346
2023-03-15T13:55:23.183Z,350
2023-03-15T13:56:23.023Z,349
2023-03-15T13:57:22.254Z,354
2023-03-15T13:58:21.986Z,353
2023-03-15T13:59:22.880Z,362
2023-03-15T14:01:26.846Z,358
2023-03-15T14:02:22.077Z,349
2023-03-15T14:03:22.305Z,361
2023-03-15T14:04:22.404Z,362
2023-03-15T14:05:22.403Z,358
2023-03-15T14:06:23.045Z,360
2023-03-15T14:07:22.647Z,363
2023-03-15T14:08:22.683Z,360
2023-03-15T14:10:22.380Z,363
2023-03-15T14:11:22.996Z,366
2023-03-15T14:12:22.343Z,365
2023-03-15T14:13:22.600Z,364
2023-03-15T14:14:22.034Z,368
2023-03-15T14:15:27.978Z,358
2023-03-15T14:16:22.574Z,353
2023-03-15T14:17:22.674Z,351
2023-03-15T14:18:22.638Z,361
2023-03-15T14:19:22.314Z,362
2023-03-15T14:21:22.841Z,359
2023-03-15T14:22:23.178Z,357
2023-03-15T14:23:30.153Z,356
2023-03-15T14:24:22.086Z,355
2023-03-15T14:25:22.609Z,366
2023-03-15T14:26:22.604Z,372
2023-03-15T14:27:30.691Z,373
2023-03-15T14:28:22.513Z,372
2023-03-15T14:29:22.017Z,374
2023-03-15T14:30:22.715Z,366
2023-03-15T14:32:23.045Z,361
2023-03-15T14:33:22.646Z,353
2023-03-15T14:34:22.123Z,361
2023-03-15T14:35:22.991Z,362
2023-03-15T14:36:22.625Z,360
2023-03-15T14:37:23.194Z,361
2023-03-15T14:38:22.816Z,359
2023-03-15T14:39:37.135Z,360
2023-03-15T14:40:22.691Z,361
2023-03-15T14:41:23.359Z,355
2023-03-15T14:42:22.896Z,357
2023-03-15T14:43:22.899Z,363
2023-03-15T14:45:22.968Z,359
2023-03-15T14:46:22.476Z,364
2023-03-15T14:47:22.297Z,367